Ana Sayfa
METAR-TAF:

METAR-TAF

Havaalanları :

Savoonga, Alaska, Amerika Birleşik Devletleri

Enlem: 63-41N, Boylam: 170-30W, yükseklik: 16 m

Güncel hava durumu gözlemi

Rapor saat 19:56 UTC de 52 dakika önce yapıldı.
Rüzgar güneydan 26 kt ve 32 kt'a kadar ani rüzgarlar
Sıcaklık 1°C
Nem 80%
Basınç 1005 hPa
Görüş mesafesi: 12.9 km
Açık gökyüzü

METAR: PASA 261956Z AUTO 18026G32KT 8SM CLR 01/M02 A2969 RMK AO2 PK WND 18034/1905 SLP054 T00111017 FZRANO $

Saat: 12:48 (20:48 UTC)


TAF: eksik

4.000'den fazla havaalanı için hava durumu gözlemleri ve tahminleri (METAR ve TAF raporları).

Kullanılabilir istasyonlar harita üzerinde sarı ve kırmızı noktalarla gösterilir.

İstasyonun adını görmek için fareyi noktanın üzerinde gezdirin.

Sonrasında hava gözlem ve tahminlerini görmek için tıklayın.

Haritayı değiştirmek için: yaklaştırmak için siyah artı işaretli yeşil düğmeye ve uzaklaştırmak için de eksi işaretli düğmeye hızla tıklayın; bitişik haritalar için yeşil okları kullanın.


METAR-TAF: